createdAt,value
2018-01-14T00:00:03.368Z,86.18
2018-01-14T00:01:08.110Z,86.22
2018-01-14T00:02:12.808Z,86.27
2018-01-14T00:03:17.488Z,86.34
2018-01-14T00:04:22.640Z,86.41
2018-01-14T00:05:27.281Z,86.41
2018-01-14T00:06:31.946Z,86.43
2018-01-14T00:07:36.766Z,86.52
2018-01-14T00:08:41.405Z,86.63
2018-01-14T00:09:46.025Z,86.68
2018-01-14T00:10:50.936Z,86.77
2018-01-14T00:11:55.498Z,86.73
2018-01-14T00:13:00.027Z,86.75
2018-01-14T00:14:04.658Z,86.70
2018-01-14T00:15:09.419Z,86.68
2018-01-14T00:16:14.151Z,86.73
2018-01-14T00:17:19.275Z,86.78
2018-01-14T00:18:23.987Z,86.81
2018-01-14T00:19:28.759Z,86.83
2018-01-14T00:20:33.473Z,86.83
2018-01-14T00:21:38.186Z,86.84
2018-01-14T00:22:42.929Z,86.85
2018-01-14T00:23:47.967Z,86.82
2018-01-14T00:24:52.837Z,86.83
2018-01-14T00:25:57.513Z,86.91
2018-01-14T00:27:02.209Z,86.94
2018-01-14T00:28:06.953Z,86.98
2018-01-14T00:29:11.669Z,86.97
2018-01-14T00:30:16.719Z,87.01
2018-01-14T00:31:21.396Z,87.02
2018-01-14T00:32:26.094Z,87.08
2018-01-14T00:33:30.990Z,87.08
2018-01-14T00:34:35.688Z,87.13
2018-01-14T00:35:40.407Z,87.17
2018-01-14T00:36:45.592Z,87.21
2018-01-14T00:37:50.283Z,87.23
2018-01-14T00:38:54.958Z,87.27
2018-01-14T00:40:00.456Z,87.26
2018-01-14T00:41:05.217Z,87.28
2018-01-14T00:42:09.913Z,87.21
2018-01-14T00:43:15.230Z,87.18
2018-01-14T00:44:19.992Z,87.17
2018-01-14T00:45:24.759Z,87.07
2018-01-14T00:46:29.564Z,87.02
2018-01-14T00:47:34.297Z,86.96
2018-01-14T00:48:39.060Z,87.04
2018-01-14T00:49:45.223Z,87.12
2018-01-14T00:50:49.867Z,87.17
2018-01-14T00:51:54.648Z,87.22
2018-01-14T00:52:59.264Z,87.26
2018-01-14T00:54:03.977Z,87.28
2018-01-14T00:55:08.601Z,87.39
2018-01-14T00:56:13.654Z,87.39
2018-01-14T00:57:18.259Z,87.40
2018-01-14T00:58:22.914Z,87.42
2018-01-14T00:59:27.512Z,87.41
2018-01-14T01:00:32.163Z,87.41
2018-01-14T01:01:36.760Z,87.40
2018-01-14T01:02:41.343Z,87.35
2018-01-14T01:03:46.053Z,87.33
2018-01-14T01:04:50.624Z,87.36
2018-01-14T01:05:55.197Z,87.35
2018-01-14T01:06:59.757Z,87.31
2018-01-14T01:08:04.719Z,87.33
2018-01-14T01:09:09.373Z,87.32
2018-01-14T01:10:14.071Z,87.31
2018-01-14T01:11:18.689Z,87.35
2018-01-14T01:12:23.316Z,87.34
2018-01-14T01:13:27.967Z,87.33
2018-01-14T01:14:33.053Z,87.31
2018-01-14T01:15:37.659Z,87.34
2018-01-14T01:16:42.250Z,87.42
2018-01-14T01:17:46.867Z,87.49
2018-01-14T01:18:51.473Z,87.52
2018-01-14T01:19:56.107Z,87.54
2018-01-14T01:21:01.176Z,87.57
2018-01-14T01:22:05.735Z,87.66
2018-01-14T01:23:10.501Z,87.70
2018-01-14T01:24:15.203Z,87.71
2018-01-14T01:25:20.078Z,87.75
2018-01-14T01:26:24.875Z,87.81
2018-01-14T01:27:29.960Z,87.83
2018-01-14T01:28:34.643Z,87.84
2018-01-14T01:29:39.418Z,87.90
2018-01-14T01:30:44.116Z,87.94
2018-01-14T01:31:48.816Z,87.99
2018-01-14T01:32:53.543Z,88.06
2018-01-14T01:33:58.632Z,88.07
2018-01-14T01:35:03.391Z,88.04
2018-01-14T01:36:08.076Z,88.07
2018-01-14T01:37:12.780Z,88.03
2018-01-14T01:38:17.565Z,87.99
2018-01-14T01:39:22.256Z,88.04
2018-01-14T01:40:26.959Z,88.11
2018-01-14T01:41:31.749Z,88.11
2018-01-14T01:42:36.452Z,88.06
2018-01-14T01:43:41.216Z,88.02
2018-01-14T01:44:45.934Z,88.00
2018-01-14T01:45:51.167Z,88.03
2018-01-14T01:46:55.845Z,88.05
2018-01-14T01:48:00.478Z,88.04
2018-01-14T01:49:05.106Z,88.00
2018-01-14T01:50:09.850Z,88.01
2018-01-14T01:51:14.558Z,87.98
2018-01-14T01:52:19.669Z,88.04
2018-01-14T01:53:24.382Z,88.07
2018-01-14T01:54:29.185Z,88.08
2018-01-14T01:55:33.907Z,88.08
2018-01-14T01:56:38.605Z,88.09
2018-01-14T01:57:43.269Z,88.06
2018-01-14T01:58:48.331Z,88.02
2018-01-14T01:59:53.107Z,88.03
2018-01-14T02:00:57.804Z,87.98
2018-01-14T02:02:02.586Z,87.89
2018-01-14T02:03:07.355Z,87.78
2018-01-14T02:04:12.034Z,87.67
2018-01-14T02:05:16.859Z,87.60
2018-01-14T02:06:21.540Z,87.57
2018-01-14T02:07:26.312Z,87.48
2018-01-14T02:08:30.976Z,87.47
2018-01-14T02:09:35.704Z,87.42
2018-01-14T02:10:40.406Z,87.40
2018-01-14T02:11:45.569Z,87.34
2018-01-14T02:12:50.368Z,87.35
2018-01-14T02:13:55.093Z,87.27
2018-01-14T02:14:59.808Z,87.23
2018-01-14T02:16:04.413Z,87.19
2018-01-14T02:17:09.078Z,87.19
2018-01-14T02:18:14.256Z,87.18
2018-01-14T02:19:18.943Z,87.16
2018-01-14T02:20:23.636Z,87.12
2018-01-14T02:21:28.410Z,87.12
2018-01-14T02:22:33.089Z,87.12
2018-01-14T02:23:37.948Z,87.17
2018-01-14T02:24:43.050Z,87.16
2018-01-14T02:25:47.713Z,87.17
2018-01-14T02:26:52.309Z,87.15
2018-01-14T02:27:56.851Z,87.15
2018-01-14T02:29:01.421Z,87.17
2018-01-14T02:30:06.185Z,87.20
2018-01-14T02:32:26.493Z,87.23
2018-01-14T02:33:31.174Z,87.19
2018-01-14T02:34:35.892Z,87.19
2018-01-14T02:35:40.578Z,87.21
2018-01-14T02:36:45.275Z,87.18
2018-01-14T02:37:50.429Z,87.15
2018-01-14T02:38:55.140Z,87.12
2018-01-14T02:39:59.765Z,87.11
2018-01-14T02:41:04.316Z,87.12
2018-01-14T02:42:09.065Z,87.09
2018-01-14T02:43:13.809Z,87.07
2018-01-14T02:44:18.932Z,87.08
2018-01-14T02:45:23.657Z,87.08
2018-01-14T02:46:28.416Z,87.03
2018-01-14T02:47:33.100Z,86.99
2018-01-14T02:48:37.859Z,86.99
2018-01-14T02:49:42.554Z,86.99
2018-01-14T02:50:47.632Z,86.96
2018-01-14T02:51:52.411Z,86.92
2018-01-14T02:52:57.135Z,86.94
2018-01-14T02:54:01.888Z,86.96
2018-01-14T02:55:06.721Z,86.94
2018-01-14T02:56:11.511Z,86.93
2018-01-14T02:57:16.677Z,86.91
2018-01-14T02:58:21.293Z,86.89
2018-01-14T02:59:26.046Z,86.91
2018-01-14T03:00:30.781Z,86.89
2018-01-14T03:01:35.458Z,86.92
2018-01-14T03:02:40.101Z,86.95
2018-01-14T03:03:45.174Z,86.95
2018-01-14T03:04:49.909Z,86.92
2018-01-14T03:05:54.609Z,86.91
2018-01-14T03:06:59.305Z,86.93
2018-01-14T03:08:04.025Z,86.92
2018-01-14T03:09:08.557Z,86.95
2018-01-14T03:10:13.592Z,86.91
2018-01-14T03:11:18.324Z,86.91
2018-01-14T03:12:23.001Z,86.92
2018-01-14T03:13:27.761Z,86.95
2018-01-14T03:14:32.429Z,86.97
2018-01-14T03:15:37.568Z,87.00
2018-01-14T03:16:42.345Z,86.97
2018-01-14T03:17:47.210Z,86.95
2018-01-14T03:18:51.899Z,86.94
2018-01-14T03:19:56.611Z,86.95
2018-01-14T03:21:01.322Z,86.96
2018-01-14T03:22:06.390Z,86.95
2018-01-14T03:23:11.065Z,86.98
2018-01-14T03:24:15.782Z,87.01
2018-01-14T03:25:20.475Z,87.03
2018-01-14T03:26:25.149Z,87.02
2018-01-14T03:27:29.827Z,86.98
2018-01-14T03:28:34.889Z,87.05
2018-01-14T03:29:39.611Z,87.16
2018-01-14T03:30:44.342Z,87.27
2018-01-14T03:31:49.034Z,87.31
2018-01-14T03:32:53.724Z,87.31
2018-01-14T03:33:58.423Z,87.30
2018-01-14T03:35:03.549Z,87.22
2018-01-14T03:36:08.278Z,87.24
2018-01-14T03:37:13.011Z,87.21
2018-01-14T03:38:17.737Z,87.16
2018-01-14T03:39:22.402Z,87.11
2018-01-14T03:40:27.172Z,87.09
2018-01-14T03:41:32.254Z,87.17
2018-01-14T03:42:37.031Z,87.16
2018-01-14T03:43:41.691Z,87.21
2018-01-14T03:44:46.478Z,87.21
2018-01-14T03:45:51.149Z,87.24
2018-01-14T03:46:55.988Z,87.22
2018-01-14T03:48:01.163Z,87.28
2018-01-14T03:49:05.940Z,87.28
2018-01-14T03:50:10.657Z,87.24
2018-01-14T03:51:15.370Z,87.22
2018-01-14T03:52:20.105Z,87.22
2018-01-14T03:53:24.798Z,87.16
2018-01-14T03:54:29.889Z,87.13
2018-01-14T03:55:34.544Z,87.10
2018-01-14T03:56:39.272Z,87.05
2018-01-14T03:57:43.949Z,87.01
2018-01-14T03:58:48.713Z,86.83
2018-01-14T03:59:53.405Z,86.71
2018-01-14T04:00:58.590Z,86.62
2018-01-14T04:02:03.293Z,86.47
2018-01-14T04:03:08.021Z,86.35
2018-01-14T04:04:12.716Z,86.25
2018-01-14T04:05:17.527Z,86.12
2018-01-14T04:06:22.213Z,86.09
2018-01-14T04:07:27.379Z,86.12
2018-01-14T04:08:32.088Z,86.13
2018-01-14T04:09:36.866Z,86.06
2018-01-14T04:10:41.585Z,85.99
2018-01-14T04:11:46.313Z,85.98
2018-01-14T04:12:51.061Z,85.98
2018-01-14T04:13:56.265Z,85.98
2018-01-14T04:15:00.966Z,85.91
2018-01-14T04:16:06.082Z,85.92
2018-01-14T04:17:10.829Z,85.95
2018-01-14T04:18:15.583Z,85.88
2018-01-14T04:19:20.474Z,85.84
2018-01-14T04:20:25.485Z,85.83
2018-01-14T04:21:30.184Z,85.82
2018-01-14T04:22:34.888Z,85.76
2018-01-14T04:23:39.608Z,85.75
2018-01-14T04:24:44.281Z,85.75
2018-01-14T04:25:49.072Z,85.75
2018-01-14T04:26:54.235Z,85.76
2018-01-14T04:27:58.966Z,85.73
2018-01-14T04:29:03.695Z,85.74
2018-01-14T04:30:08.415Z,85.68
2018-01-14T04:31:13.148Z,85.65
2018-01-14T04:32:17.876Z,85.60
2018-01-14T04:33:22.906Z,85.59
2018-01-14T04:34:27.697Z,85.51
2018-01-14T04:35:32.441Z,85.52
2018-01-14T04:36:41.585Z,85.55
2018-01-14T04:37:46.172Z,85.53
2018-01-14T04:38:50.848Z,85.47
2018-01-14T04:39:55.940Z,85.46
2018-01-14T04:41:00.619Z,85.42
2018-01-14T04:42:05.215Z,85.41
2018-01-14T04:43:09.825Z,85.44
2018-01-14T04:44:14.383Z,85.48
2018-01-14T04:45:19.092Z,85.49
2018-01-14T04:46:36.240Z,85.45
2018-01-14T04:47:40.832Z,85.45
2018-01-14T04:48:45.358Z,85.48
2018-01-14T04:49:49.915Z,85.48
2018-01-14T04:50:54.729Z,85.44
2018-01-14T04:51:59.338Z,85.38
2018-01-14T04:53:04.694Z,85.35
2018-01-14T04:54:09.404Z,85.34
2018-01-14T04:55:14.153Z,85.32
2018-01-14T04:56:18.876Z,85.32
2018-01-14T04:57:23.589Z,85.30
2018-01-14T04:58:28.315Z,85.27
2018-01-14T04:59:33.383Z,85.22
2018-01-14T05:00:38.077Z,85.20
2018-01-14T05:01:42.895Z,85.22
2018-01-14T05:02:47.660Z,85.19
2018-01-14T05:03:52.345Z,85.12
2018-01-14T05:04:57.045Z,85.03
2018-01-14T05:06:02.325Z,84.99
2018-01-14T05:07:07.044Z,85.03
2018-01-14T05:08:11.722Z,85.04
2018-01-14T05:09:16.334Z,85.03
2018-01-14T05:10:20.960Z,85.00
2018-01-14T05:11:25.521Z,85.04
2018-01-14T05:12:30.385Z,84.98
2018-01-14T05:13:34.908Z,84.95
2018-01-14T05:14:39.485Z,84.96
2018-01-14T05:15:44.043Z,85.00
2018-01-14T05:16:48.646Z,85.01
2018-01-14T05:17:53.205Z,85.02
2018-01-14T05:18:58.130Z,84.99
2018-01-14T05:20:02.800Z,84.94
2018-01-14T05:21:07.505Z,84.91
2018-01-14T05:22:12.177Z,84.91
2018-01-14T05:23:16.889Z,84.95
2018-01-14T05:24:21.628Z,84.97
2018-01-14T05:25:26.746Z,84.89
2018-01-14T05:26:31.443Z,84.84
2018-01-14T05:27:36.148Z,84.84
2018-01-14T05:28:40.868Z,84.82
2018-01-14T05:29:45.576Z,84.85
2018-01-14T05:30:50.268Z,84.85
2018-01-14T05:31:55.409Z,84.87
2018-01-14T05:33:00.104Z,84.83
2018-01-14T05:34:04.861Z,84.84
2018-01-14T05:35:09.566Z,84.77
2018-01-14T05:36:14.315Z,84.74
2018-01-14T05:37:19.139Z,84.78
2018-01-14T05:38:24.412Z,84.77
2018-01-14T05:39:29.216Z,84.76
2018-01-14T05:40:33.996Z,84.71
2018-01-14T05:41:38.683Z,84.67
2018-01-14T05:42:43.356Z,84.66
2018-01-14T05:43:48.027Z,84.64
2018-01-14T05:44:53.044Z,84.63
2018-01-14T05:45:57.780Z,84.63
2018-01-14T05:47:02.532Z,84.59
2018-01-14T05:48:07.213Z,84.54
2018-01-14T05:49:11.895Z,84.50
2018-01-14T05:50:16.578Z,84.49
2018-01-14T05:51:21.780Z,84.48
2018-01-14T05:52:26.453Z,84.46
2018-01-14T05:53:31.156Z,84.46
2018-01-14T05:54:35.868Z,84.44
2018-01-14T05:55:40.596Z,84.44
2018-01-14T05:56:45.259Z,84.47
2018-01-14T05:57:50.239Z,84.46
2018-01-14T05:58:54.926Z,84.52
2018-01-14T05:59:59.620Z,84.51
2018-01-14T06:01:04.431Z,84.50
2018-01-14T06:02:09.225Z,84.51
2018-01-14T06:03:13.945Z,84.54
2018-01-14T06:04:18.992Z,84.51
2018-01-14T06:05:23.718Z,84.54
2018-01-14T06:06:28.425Z,84.53
2018-01-14T06:07:33.175Z,84.52
2018-01-14T06:08:37.956Z,84.49
2018-01-14T06:09:43.580Z,84.48
2018-01-14T06:10:48.721Z,84.48
2018-01-14T06:11:53.459Z,84.50
2018-01-14T06:12:58.258Z,84.54
2018-01-14T06:14:02.922Z,84.57
2018-01-14T06:15:07.621Z,84.57
2018-01-14T06:16:12.328Z,84.61
2018-01-14T06:17:17.410Z,84.62
2018-01-14T06:18:22.094Z,84.62
2018-01-14T06:19:26.818Z,84.64
2018-01-14T06:20:31.509Z,84.66
2018-01-14T06:21:36.254Z,84.69
2018-01-14T06:22:40.922Z,84.69
2018-01-14T06:23:45.965Z,84.70
2018-01-14T06:24:50.721Z,84.67
2018-01-14T06:25:55.434Z,84.69
2018-01-14T06:27:00.142Z,84.71
2018-01-14T06:28:04.851Z,84.74
2018-01-14T06:29:09.520Z,84.78
2018-01-14T06:30:14.692Z,84.77
2018-01-14T06:31:19.376Z,84.74
2018-01-14T06:32:24.123Z,84.81
2018-01-14T06:33:28.845Z,84.85
2018-01-14T06:34:33.573Z,84.84
2018-01-14T06:35:38.348Z,84.88
2018-01-14T06:36:43.535Z,84.83
2018-01-14T06:37:48.397Z,84.79
2018-01-14T06:38:53.114Z,84.79
2018-01-14T06:39:57.818Z,84.76
2018-01-14T06:41:02.499Z,84.81
2018-01-14T06:42:07.229Z,84.85
2018-01-14T06:43:12.306Z,84.83
2018-01-14T06:44:17.006Z,84.80
2018-01-14T06:45:21.602Z,84.81
2018-01-14T06:46:26.323Z,84.81
2018-01-14T06:47:30.918Z,84.82
2018-01-14T06:48:35.537Z,84.81
2018-01-14T06:49:40.484Z,84.86
2018-01-14T06:50:45.054Z,84.89
2018-01-14T06:51:49.507Z,84.89
2018-01-14T06:52:53.964Z,84.89
2018-01-14T06:53:58.628Z,84.90
2018-01-14T06:55:03.193Z,84.89
2018-01-14T06:56:08.178Z,84.89
2018-01-14T06:57:12.698Z,84.81
2018-01-14T06:58:17.382Z,84.79
2018-01-14T06:59:22.089Z,84.80
2018-01-14T07:00:26.773Z,84.84
2018-01-14T07:01:31.460Z,84.84
2018-01-14T07:02:36.537Z,84.79
2018-01-14T07:03:41.233Z,84.73
2018-01-14T07:04:45.966Z,84.73
2018-01-14T07:05:50.681Z,84.75
2018-01-14T07:06:55.460Z,84.78
2018-01-14T07:08:00.217Z,84.72
2018-01-14T07:09:06.488Z,84.73
2018-01-14T07:10:10.999Z,84.74
2018-01-14T07:11:15.733Z,84.72
2018-01-14T07:12:20.425Z,84.72
2018-01-14T07:13:25.151Z,84.67
2018-01-14T07:14:29.846Z,84.66
2018-01-14T07:15:34.947Z,84.58
2018-01-14T07:16:39.577Z,84.60
2018-01-14T07:17:44.186Z,84.59
2018-01-14T07:18:48.773Z,84.63
2018-01-14T07:19:53.479Z,84.56
2018-01-14T07:20:58.086Z,84.55
2018-01-14T07:22:03.224Z,84.59
2018-01-14T07:23:07.886Z,84.59
2018-01-14T07:24:12.497Z,84.56
2018-01-14T07:25:17.137Z,84.54
2018-01-14T07:26:21.790Z,84.50
2018-01-14T07:27:26.380Z,84.51
2018-01-14T07:28:31.993Z,84.54
2018-01-14T07:29:36.617Z,84.53
2018-01-14T07:30:41.258Z,84.54
2018-01-14T07:31:45.978Z,84.51
2018-01-14T07:32:50.673Z,84.45
2018-01-14T07:33:55.361Z,84.45
2018-01-14T07:35:00.407Z,84.42
2018-01-14T07:36:05.053Z,84.43
2018-01-14T07:37:09.688Z,84.44
2018-01-14T07:38:14.487Z,84.39
2018-01-14T07:39:19.131Z,84.38
2018-01-14T07:40:23.817Z,84.40
2018-01-14T07:41:29.003Z,84.39
2018-01-14T07:42:33.651Z,84.38
2018-01-14T07:43:38.377Z,84.37
2018-01-14T07:44:43.057Z,84.38
2018-01-14T07:45:47.747Z,84.36
2018-01-14T07:46:52.466Z,84.34
2018-01-14T07:47:57.492Z,84.34
2018-01-14T07:49:02.210Z,84.38
2018-01-14T07:50:06.877Z,84.37
2018-01-14T07:51:11.618Z,84.32
2018-01-14T07:52:16.293Z,84.28
2018-01-14T07:53:21.009Z,84.29
2018-01-14T07:54:26.166Z,84.28
2018-01-14T07:55:30.899Z,84.27
2018-01-14T07:56:35.697Z,84.20
2018-01-14T07:57:40.446Z,84.21
2018-01-14T07:58:45.136Z,84.21
2018-01-14T07:59:50.186Z,84.23
2018-01-14T08:00:54.878Z,84.15
2018-01-14T08:01:59.614Z,84.16
2018-01-14T08:03:04.342Z,84.19
2018-01-14T08:04:09.052Z,84.23
2018-01-14T08:05:13.818Z,84.17
2018-01-14T08:06:18.878Z,84.05
2018-01-14T08:07:23.633Z,84.05
2018-01-14T08:08:28.249Z,84.05
2018-01-14T08:09:33.250Z,84.02
2018-01-14T08:10:37.983Z,83.94
2018-01-14T08:11:42.752Z,83.94
2018-01-14T08:12:47.846Z,83.95
2018-01-14T08:13:52.554Z,83.91
2018-01-14T08:14:57.302Z,83.88
2018-01-14T08:16:02.084Z,83.88
2018-01-14T08:17:06.786Z,83.88
2018-01-14T08:18:11.533Z,83.90
2018-01-14T08:19:16.694Z,83.89
2018-01-14T08:20:21.335Z,83.85
2018-01-14T08:21:25.985Z,83.75
2018-01-14T08:22:30.787Z,83.75
2018-01-14T08:23:35.478Z,83.77
2018-01-14T08:24:40.166Z,83.80
2018-01-14T08:25:45.214Z,83.75
2018-01-14T08:26:49.922Z,83.72
2018-01-14T08:27:54.473Z,83.65
2018-01-14T08:28:59.198Z,83.57
2018-01-14T08:30:03.998Z,83.55
2018-01-14T08:31:08.732Z,83.57
2018-01-14T08:32:13.976Z,83.58
2018-01-14T08:33:18.699Z,83.58
2018-01-14T08:34:23.438Z,83.58
2018-01-14T08:35:28.138Z,83.52
2018-01-14T08:36:33.748Z,83.48
2018-01-14T08:37:38.455Z,83.43
2018-01-14T08:38:43.655Z,83.35
2018-01-14T08:39:48.333Z,83.27
2018-01-14T08:40:53.033Z,83.24
2018-01-14T08:41:57.738Z,83.20
2018-01-14T08:43:02.470Z,83.21
2018-01-14T08:44:07.184Z,83.18
2018-01-14T08:45:12.527Z,83.02
2018-01-14T08:46:17.230Z,82.98
2018-01-14T08:47:21.993Z,82.99
2018-01-14T08:48:26.736Z,82.98
2018-01-14T08:49:31.477Z,82.96
2018-01-14T08:50:36.203Z,82.88
2018-01-14T08:51:41.250Z,82.82
2018-01-14T08:52:45.901Z,82.77
2018-01-14T08:53:50.544Z,82.64
2018-01-14T08:54:55.426Z,82.62
2018-01-14T08:56:00.126Z,82.57
2018-01-14T08:57:04.981Z,82.56
2018-01-14T08:58:10.168Z,82.51
2018-01-14T08:59:14.904Z,82.43
2018-01-14T09:00:19.699Z,82.36
2018-01-14T09:01:28.474Z,82.38
2018-01-14T09:02:34.168Z,82.35
2018-01-14T09:03:38.967Z,82.16
2018-01-14T09:04:44.048Z,82.07
2018-01-14T09:05:48.848Z,82.03
2018-01-14T09:06:53.619Z,81.97
2018-01-14T09:07:58.300Z,81.95
2018-01-14T09:09:03.067Z,81.93
2018-01-14T09:10:07.749Z,81.87
2018-01-14T09:11:12.987Z,81.70
2018-01-14T09:12:17.708Z,81.74
2018-01-14T09:13:22.438Z,81.60
2018-01-14T09:14:27.179Z,81.54
2018-01-14T09:15:31.901Z,81.55
2018-01-14T09:16:36.777Z,81.50
2018-01-14T09:17:41.836Z,81.44
2018-01-14T09:18:46.542Z,81.38
2018-01-14T09:19:51.236Z,81.31
2018-01-14T09:20:55.976Z,81.30
2018-01-14T09:22:00.698Z,81.29
2018-01-14T09:23:05.417Z,81.21
2018-01-14T09:24:11.132Z,81.18
2018-01-14T09:25:16.219Z,81.14
2018-01-14T09:26:21.711Z,81.12
2018-01-14T09:27:27.186Z,80.99
2018-01-14T09:28:32.302Z,80.94
2018-01-14T09:29:37.948Z,80.90
2018-01-14T09:30:47.474Z,80.71
2018-01-14T09:31:53.363Z,80.71
2018-01-14T09:32:58.896Z,80.56
2018-01-14T09:34:04.224Z,80.46
2018-01-14T09:35:10.427Z,80.46
2018-01-14T09:36:16.035Z,80.31
2018-01-14T09:37:21.140Z,80.34
2018-01-14T09:38:26.694Z,80.39
2018-01-14T09:39:32.428Z,80.44
2018-01-14T09:40:37.459Z,80.25
2018-01-14T09:41:42.840Z,80.34
2018-01-14T09:42:48.711Z,80.28
2018-01-14T09:43:54.096Z,80.12
2018-01-14T09:44:59.438Z,79.99
2018-01-14T09:46:04.555Z,79.98
2018-01-14T09:47:10.055Z,79.98
2018-01-14T09:48:15.550Z,79.89
2018-01-14T09:49:21.308Z,79.82
2018-01-14T09:50:26.359Z,79.73
2018-01-14T09:51:31.694Z,79.69
2018-01-14T09:52:37.013Z,79.60
2018-01-14T09:53:42.180Z,79.58
2018-01-14T09:54:47.167Z,79.57
2018-01-14T09:55:52.758Z,79.53
2018-01-14T09:56:58.000Z,79.42
2018-01-14T09:58:03.430Z,79.31
2018-01-14T09:59:09.048Z,79.29
2018-01-14T10:00:14.349Z,79.15
2018-01-14T10:01:19.684Z,79.13
2018-01-14T10:02:25.481Z,79.14
2018-01-14T10:03:30.738Z,79.10
2018-01-14T10:04:35.877Z,79.07
2018-01-14T10:05:41.059Z,79.04
2018-01-14T10:06:46.553Z,78.93
2018-01-14T10:07:51.762Z,78.89
2018-01-14T10:08:57.585Z,78.81
2018-01-14T10:10:02.720Z,78.81
2018-01-14T10:11:08.531Z,78.75
2018-01-14T10:12:13.611Z,78.67
2018-01-14T10:13:19.045Z,78.49
2018-01-14T10:14:24.638Z,78.56
2018-01-14T10:15:30.610Z,78.55
2018-01-14T10:16:36.079Z,78.40
2018-01-14T10:17:41.250Z,78.33
2018-01-14T10:18:46.753Z,78.26
2018-01-14T10:19:52.074Z,78.28
2018-01-14T10:20:58.693Z,78.17
2018-01-14T10:22:04.204Z,78.05
2018-01-14T10:23:09.735Z,78.06
2018-01-14T10:24:15.008Z,77.94
2018-01-14T10:25:20.491Z,77.94
2018-01-14T10:26:25.873Z,77.94
2018-01-14T10:27:31.572Z,77.86
2018-01-14T10:28:37.424Z,77.80
2018-01-14T10:29:42.853Z,77.76
2018-01-14T10:30:48.186Z,77.65
2018-01-14T10:31:53.589Z,77.54
2018-01-14T10:32:59.010Z,77.53
2018-01-14T10:34:05.164Z,77.46
2018-01-14T10:35:10.481Z,77.46
2018-01-14T10:36:16.292Z,77.33
2018-01-14T10:37:21.724Z,77.28
2018-01-14T10:38:27.063Z,77.18
2018-01-14T10:39:32.541Z,77.16
2018-01-14T10:40:38.255Z,77.04
2018-01-14T10:41:43.569Z,76.92
2018-01-14T10:42:48.873Z,76.80
2018-01-14T10:43:54.325Z,76.57
2018-01-14T10:44:59.858Z,76.63
2018-01-14T10:46:05.473Z,76.45
2018-01-14T10:47:11.427Z,76.38
2018-01-14T10:48:17.080Z,76.29
2018-01-14T10:49:22.158Z,76.19
2018-01-14T10:50:27.869Z,76.09
2018-01-14T10:51:33.157Z,76.09
2018-01-14T10:52:39.879Z,75.95
2018-01-14T10:53:46.095Z,75.60
2018-01-14T10:54:51.669Z,75.54
2018-01-14T10:55:57.729Z,75.48
2018-01-14T10:57:03.293Z,75.31
2018-01-14T10:58:08.416Z,75.03
2018-01-14T10:59:13.152Z,75.03
2018-01-14T11:00:18.490Z,74.65
2018-01-14T11:01:27.603Z,74.62
2018-01-14T11:02:32.848Z,74.19
2018-01-14T11:03:37.802Z,73.83
2018-01-14T11:04:42.642Z,73.69
2018-01-14T11:05:47.529Z,73.52
2018-01-14T11:06:52.483Z,73.58
2018-01-14T11:07:57.433Z,73.60
2018-01-14T11:09:04.698Z,73.49
2018-01-14T11:10:06.761Z,73.42
2018-01-14T11:11:11.563Z,73.41
2018-01-14T11:12:16.489Z,73.42
2018-01-14T11:13:23.902Z,73.31
2018-01-14T11:14:30.278Z,73.22
2018-01-14T11:15:36.272Z,73.08
2018-01-14T11:16:43.066Z,73.11
2018-01-14T11:17:47.872Z,72.98
2018-01-14T11:18:52.941Z,72.71
2018-01-14T11:19:58.680Z,72.49
2018-01-14T11:21:05.157Z,72.38
2018-01-14T11:22:11.110Z,72.04
2018-01-14T11:23:16.821Z,72.03
2018-01-14T11:24:23.086Z,71.93
2018-01-14T11:25:31.563Z,71.68
2018-01-14T11:26:37.134Z,71.27
2018-01-14T11:27:42.062Z,71.28
2018-01-14T11:28:52.689Z,70.83
2018-01-14T11:30:01.340Z,70.37
2018-01-14T11:31:06.811Z,70.07
2018-01-14T11:32:13.581Z,70.06
2018-01-14T11:33:19.298Z,69.96
2018-01-14T11:34:24.237Z,69.56
2018-01-14T11:35:30.018Z,69.56
2018-01-14T11:36:36.589Z,69.74
2018-01-14T11:37:43.738Z,69.88
2018-01-14T11:38:50.509Z,69.75
2018-01-14T11:39:57.858Z,69.62
2018-01-14T11:41:06.087Z,68.97
2018-01-14T11:42:13.095Z,68.52
2018-01-14T11:43:20.340Z,68.11
2018-01-14T11:44:27.431Z,67.49
2018-01-14T11:45:34.065Z,67.31
2018-01-14T11:46:41.466Z,67.37
2018-01-14T11:47:49.409Z,67.20
2018-01-14T11:48:57.140Z,66.85
2018-01-14T11:50:03.751Z,66.59
2018-01-14T11:51:10.658Z,66.15
2018-01-14T11:52:18.219Z,66.13
2018-01-14T11:53:25.423Z,66.18
2018-01-14T11:54:33.243Z,65.97
2018-01-14T11:55:40.553Z,66.08
2018-01-14T11:56:47.684Z,66.02
2018-01-14T11:57:54.638Z,65.83
2018-01-14T11:58:59.702Z,65.47
2018-01-14T12:00:06.358Z,65.56
2018-01-14T12:01:11.274Z,65.51
2018-01-14T12:02:16.377Z,65.35
2018-01-14T12:03:23.539Z,65.22
2018-01-14T12:04:28.573Z,65.08
2018-01-14T12:05:34.978Z,65.04
2018-01-14T12:06:41.239Z,64.80
2018-01-14T12:07:47.116Z,64.91
2018-01-14T12:08:53.241Z,64.76
2018-01-14T12:09:58.164Z,64.87
2018-01-14T12:11:04.726Z,64.73
2018-01-14T12:12:10.480Z,65.15
2018-01-14T12:13:16.422Z,65.05
2018-01-14T12:14:21.524Z,64.96
2018-01-14T12:15:27.396Z,64.83
2018-01-14T12:16:33.220Z,64.60
2018-01-14T12:17:38.662Z,64.78
2018-01-14T12:18:43.965Z,64.54
2018-01-14T12:19:49.013Z,64.29
2018-01-14T12:20:54.495Z,64.19
2018-01-14T12:22:00.201Z,64.13
2018-01-14T12:23:05.500Z,63.83
2018-01-14T12:24:11.381Z,63.95
2018-01-14T12:25:19.871Z,63.74
2018-01-14T12:26:26.993Z,63.36
2018-01-14T12:27:32.497Z,63.54
2018-01-14T12:28:39.087Z,62.98
2018-01-14T12:29:47.325Z,63.12
2018-01-14T12:30:53.386Z,63.21
2018-01-14T12:31:59.988Z,63.08
2018-01-14T12:33:05.218Z,62.96
2018-01-14T12:34:15.486Z,62.76
2018-01-14T12:35:20.934Z,62.61
2018-01-14T12:36:27.849Z,62.68
2018-01-14T12:37:33.599Z,62.57
2018-01-14T12:38:39.618Z,62.57
2018-01-14T12:39:45.403Z,62.63
2018-01-14T12:40:52.878Z,62.62
2018-01-14T12:41:58.760Z,62.72
2018-01-14T12:43:04.073Z,62.33
2018-01-14T12:44:11.982Z,62.24
2018-01-14T12:45:18.100Z,62.11
2018-01-14T12:46:25.924Z,61.99
2018-01-14T12:47:33.748Z,61.79
2018-01-14T12:48:41.544Z,61.53
2018-01-14T12:49:47.730Z,61.45
2018-01-14T12:50:55.275Z,61.10
2018-01-14T12:52:01.665Z,61.14
2018-01-14T12:53:09.497Z,61.41
2018-01-14T12:54:17.608Z,61.55
2018-01-14T12:55:25.633Z,61.27
2018-01-14T12:56:33.331Z,61.19
2018-01-14T12:57:39.576Z,61.30
2018-01-14T12:58:47.155Z,61.31
2018-01-14T12:59:53.910Z,61.20
2018-01-14T13:01:00.661Z,61.44
2018-01-14T13:02:06.105Z,61.40
2018-01-14T13:03:11.320Z,61.32
2018-01-14T13:04:20.586Z,61.19
2018-01-14T13:05:27.338Z,61.14
2018-01-14T13:06:35.321Z,61.13
2018-01-14T13:07:42.022Z,61.18
2018-01-14T13:08:48.247Z,61.22
2018-01-14T13:09:54.850Z,61.48
2018-01-14T13:11:02.505Z,61.45
2018-01-14T13:12:09.178Z,61.44
2018-01-14T13:13:17.073Z,61.47
2018-01-14T13:14:23.708Z,61.70
2018-01-14T13:15:30.174Z,61.79
2018-01-14T13:16:38.364Z,61.87
2018-01-14T13:17:45.901Z,61.86
2018-01-14T13:18:51.514Z,61.85
2018-01-14T13:19:58.400Z,61.67
2018-01-14T13:21:05.822Z,61.72
2018-01-14T13:22:12.358Z,61.86
2018-01-14T13:23:18.772Z,61.58
2018-01-14T13:24:25.401Z,61.67
2018-01-14T13:25:33.138Z,61.63
2018-01-14T13:26:40.085Z,61.60
2018-01-14T13:27:47.009Z,61.61
2018-01-14T13:28:53.908Z,61.32
2018-01-14T13:30:01.277Z,61.38
2018-01-14T13:31:08.544Z,61.56
2018-01-14T13:32:14.511Z,61.92
2018-01-14T13:33:22.309Z,61.93
2018-01-14T13:34:30.114Z,62.23
2018-01-14T13:35:35.814Z,62.30
2018-01-14T13:36:42.706Z,62.46
2018-01-14T13:37:49.736Z,62.72
2018-01-14T13:38:58.912Z,62.66
2018-01-14T13:40:06.223Z,62.52
2018-01-14T13:41:14.122Z,62.33
2018-01-14T13:42:21.489Z,62.14
2018-01-14T13:43:28.636Z,62.21
2018-01-14T13:44:35.955Z,62.55
2018-01-14T13:45:42.201Z,62.46
2018-01-14T13:46:49.330Z,62.71
2018-01-14T13:47:55.624Z,62.82
2018-01-14T13:49:03.188Z,62.83
2018-01-14T13:50:08.189Z,62.87
2018-01-14T13:51:18.269Z,62.70
2018-01-14T13:52:27.126Z,62.77
2018-01-14T13:53:34.304Z,62.71
2018-01-14T13:54:43.317Z,62.80
2018-01-14T13:55:50.519Z,62.79
2018-01-14T13:56:57.447Z,62.95
2018-01-14T13:58:03.515Z,62.95
2018-01-14T13:59:11.047Z,63.03
2018-01-14T14:00:17.795Z,63.20
2018-01-14T14:01:22.913Z,63.25